To NAV CANADA Home Page Login to a new session Search on AWWS site Feedback and Comments Disclaimer Vers la page française équivalente Tips FAQ What's new on the site To the Forecasts and Observations / NOTAM section To "File a Flight Plan" website Publications and other links Update of the User's profile FIC Telephone Numbers My Weather Data Folder Route Weather Data Regional Weather Data Local Weather Data To the Forecasts and Observations / NOTAM section
Request Generated 02/24/2017 at 03:35:55 UTC . Weather information available at that time is displayed.

METAR/TAF

MONT-JOLI/QC    

SPECI CYYY 240321Z 23006KT 2SM -FZRA BR OVC002 M00/M00 A2953 RMK ST8
SLP005=
METAR CYYY 240300Z CCA 25007KT 1SM R06/6000FT/U -FZRA BR OVC002
M00/M00 A2952 RMK FG4ST4 SLP002=
METAR CYYY 240300Z 25007KT 1/2SM R06/P6000FT/U -FZRA BR OVC002
M00/M00 A2952 RMK FG4ST4 SLP002=
SPECI CYYY 240217Z 24005KT 1/2SM R06/3000VP6000FT/D -RA FG OVC002
01/01 A2949 RMK FG5ST3 SLP990=
METAR CYYY 240200Z 24003KT 180V260 2SM -RA BR OVC003 02/01 A2948 RMK
ST8 SLP987=
SPECI CYYY 240126Z VRB02KT 2SM -RA BR OVC003 02/01 A2947 RMK ST8
SLP985=
SPECI CYYY 240113Z 24003KT 180V260 1SM R06/P6000FT/U -RA BR OVC003
02/01 A2947 RMK SF8 SLP985=
METAR CYYY 240100Z 26005KT 5SM -RA BR OVC010 02/01 A2947 RMK SC8
SLP983=

TAF AMD CYYY 240304Z 2403/2414 25008KT 1/2SM -FZRA FG OVC002 TEMPO
2403/2404 3SM -RASN BR OVC008
FM240400 26015KT 5SM -SHRA BR OVC020 TEMPO 2404/2406 P6SM -RA
OVC025 PROB30 2404/2406 1SM -RA BR OVC003
FM240600 26015KT P6SM BKN025
RMK NXT FCST BY 240800Z=
Your time UTC time
Weather data provided by Environment Canada and NAV CANADA